createdAt,value
2017-11-04T00:00:14.651Z,8.50
2017-11-04T00:02:45.274Z,8.50
2017-11-04T00:05:23.056Z,8.60
2017-11-04T00:07:52.247Z,8.60
2017-11-04T00:10:20.452Z,8.70
2017-11-04T00:12:48.622Z,8.60
2017-11-04T00:15:17.193Z,8.60
2017-11-04T00:17:46.134Z,8.50
2017-11-04T00:20:15.119Z,8.50
2017-11-04T00:22:44.358Z,8.50
2017-11-04T00:25:15.433Z,8.40
2017-11-04T00:27:46.824Z,8.40
2017-11-04T00:30:14.980Z,8.40
2017-11-04T00:32:51.132Z,8.50
2017-11-04T00:35:30.912Z,8.40
2017-11-04T00:37:59.043Z,8.40
2017-11-04T00:40:28.541Z,8.40
2017-11-04T00:42:57.441Z,8.40
2017-11-04T00:45:25.612Z,8.40
2017-11-04T00:47:54.827Z,8.40
2017-11-04T00:50:24.598Z,8.30
2017-11-04T00:52:55.689Z,8.40
2017-11-04T00:55:25.164Z,8.40
2017-11-04T00:57:56.490Z,8.30
2017-11-04T01:00:26.133Z,8.40
2017-11-04T01:02:55.337Z,8.30
2017-11-04T01:05:24.137Z,8.40
2017-11-04T01:07:52.265Z,8.40
2017-11-04T01:10:21.834Z,8.40
2017-11-04T01:12:49.951Z,8.40
2017-11-04T01:15:18.491Z,8.40
2017-11-04T01:17:48.394Z,8.40
2017-11-04T01:20:16.614Z,8.40
2017-11-04T01:22:44.833Z,8.40
2017-11-04T01:25:13.014Z,8.40
2017-11-04T01:27:41.549Z,8.40
2017-11-04T01:30:09.671Z,8.50
2017-11-04T01:32:37.868Z,8.40
2017-11-04T01:35:06.779Z,8.40
2017-11-04T01:37:35.955Z,8.40
2017-11-04T01:40:04.905Z,8.40
2017-11-04T01:42:33.037Z,8.30
2017-11-04T01:45:01.142Z,8.50
2017-11-04T01:47:29.403Z,8.50
2017-11-04T01:49:57.701Z,8.50
2017-11-04T01:52:25.862Z,8.40
2017-11-04T01:54:54.013Z,8.40
2017-11-04T01:57:22.183Z,8.30
2017-11-04T01:59:50.436Z,8.20
2017-11-04T02:02:18.652Z,8.20
2017-11-04T02:04:47.684Z,8.20
2017-11-04T02:07:17.539Z,8.10
2017-11-04T02:09:46.785Z,8.10
2017-11-04T02:12:14.973Z,8.00
2017-11-04T02:14:43.092Z,8.10
2017-11-04T02:17:11.330Z,8.20
2017-11-04T02:19:39.528Z,8.10
2017-11-04T02:22:07.719Z,8.10
2017-11-04T02:24:37.447Z,8.00
2017-11-04T02:27:06.399Z,8.00
2017-11-04T02:29:34.617Z,8.10
2017-11-04T02:32:03.645Z,8.10
2017-11-04T02:34:31.861Z,8.10
2017-11-04T02:37:00.896Z,8.20
2017-11-04T02:39:30.938Z,8.20
2017-11-04T02:41:59.158Z,8.20
2017-11-04T02:44:27.361Z,8.20
2017-11-04T02:46:56.325Z,8.20
2017-11-04T02:49:25.327Z,8.20
2017-11-04T02:51:54.360Z,8.20
2017-11-04T02:54:22.633Z,8.10
2017-11-04T02:56:50.848Z,8.20
2017-11-04T02:59:18.983Z,8.30
2017-11-04T03:01:47.352Z,8.30
2017-11-04T03:04:15.551Z,8.30
2017-11-04T03:06:43.754Z,8.30
2017-11-04T03:09:12.721Z,8.20
2017-11-04T03:11:41.422Z,8.20
2017-11-04T03:14:10.374Z,8.20
2017-11-04T03:16:39.245Z,8.10
2017-11-04T03:19:07.518Z,8.20
2017-11-04T03:21:36.628Z,8.20
2017-11-04T03:24:04.795Z,8.20
2017-11-04T03:26:33.530Z,8.20
2017-11-04T03:29:01.682Z,8.10
2017-11-04T03:31:29.850Z,8.20
2017-11-04T03:33:58.001Z,8.20
2017-11-04T03:36:26.290Z,8.20
2017-11-04T03:38:54.421Z,8.10
2017-11-04T03:41:23.339Z,8.00
2017-11-04T03:43:51.541Z,8.00
2017-11-04T03:46:19.744Z,8.10
2017-11-04T03:48:48.746Z,8.00
2017-11-04T03:51:18.280Z,8.00
2017-11-04T03:53:47.326Z,8.10
2017-11-04T03:56:15.480Z,8.00
2017-11-04T03:58:43.583Z,8.10
2017-11-04T04:01:11.732Z,8.00
2017-11-04T04:03:40.317Z,8.00
2017-11-04T04:06:08.495Z,8.00
2017-11-04T04:08:37.800Z,8.10
2017-11-04T04:11:06.567Z,8.10
2017-11-04T04:13:34.682Z,8.10
2017-11-04T04:16:03.641Z,8.10
2017-11-04T04:18:31.792Z,8.10
2017-11-04T04:21:00.021Z,8.10
2017-11-04T04:23:28.946Z,7.90
2017-11-04T04:25:58.117Z,7.90
2017-11-04T04:28:27.131Z,7.90
2017-11-04T04:30:55.281Z,7.80
2017-11-04T04:33:24.254Z,7.90
2017-11-04T04:35:52.431Z,7.90
2017-11-04T04:38:22.120Z,7.90
2017-11-04T04:40:51.157Z,7.90
2017-11-04T04:43:20.732Z,7.90
2017-11-04T04:45:48.840Z,7.80
2017-11-04T04:48:18.276Z,7.90
2017-11-04T04:50:46.386Z,7.90
2017-11-04T04:53:14.555Z,7.90
2017-11-04T04:55:42.782Z,7.90
2017-11-04T04:58:11.007Z,7.90
2017-11-04T05:00:40.028Z,7.90
2017-11-04T05:03:08.766Z,7.80
2017-11-04T05:05:37.634Z,7.80
2017-11-04T05:08:05.848Z,7.80
2017-11-04T05:10:34.308Z,7.80
2017-11-04T05:13:02.398Z,7.80
2017-11-04T05:15:30.656Z,7.80
2017-11-04T05:17:59.044Z,7.80
2017-11-04T05:20:28.057Z,7.80
2017-11-04T05:22:57.233Z,7.80
2017-11-04T05:35:10.403Z,7.70
2017-11-04T05:37:39.664Z,7.60
2017-11-04T05:40:08.600Z,7.80
2017-11-04T05:42:36.801Z,7.70
2017-11-04T05:45:06.262Z,7.80
2017-11-04T05:47:34.424Z,7.90
2017-11-04T05:50:02.642Z,7.90
2017-11-04T05:52:30.860Z,7.90
2017-11-04T05:54:59.045Z,7.90
2017-11-04T05:57:27.258Z,7.90
2017-11-04T05:59:56.263Z,7.90
2017-11-04T06:02:25.691Z,7.80
2017-11-04T06:04:53.918Z,7.90
2017-11-04T06:07:22.124Z,7.90
2017-11-04T06:09:51.088Z,8.10
2017-11-04T06:12:19.987Z,8.10
2017-11-04T06:14:49.666Z,8.10
2017-11-04T06:17:17.873Z,8.10
2017-11-04T06:19:46.892Z,8.00
2017-11-04T06:22:15.861Z,8.10
2017-11-04T06:24:44.027Z,8.00
2017-11-04T06:27:12.941Z,8.10
2017-11-04T06:29:41.951Z,8.20
2017-11-04T06:32:10.348Z,8.10
2017-11-04T06:34:38.491Z,8.30
2017-11-04T06:37:06.684Z,8.30
2017-11-04T06:39:35.685Z,8.40
2017-11-04T06:42:03.856Z,8.40
2017-11-04T06:44:32.067Z,8.40
2017-11-04T06:47:00.239Z,8.50
2017-11-04T06:49:28.439Z,8.50
2017-11-04T06:51:57.379Z,8.60
2017-11-04T06:54:25.748Z,8.70
2017-11-04T06:56:54.169Z,8.70
2017-11-04T06:59:23.535Z,8.70
2017-11-04T07:01:52.208Z,8.70
2017-11-04T07:04:21.110Z,8.70
2017-11-04T07:06:49.301Z,8.60
2017-11-04T07:09:17.486Z,8.70
2017-11-04T07:11:45.754Z,8.70
2017-11-04T07:14:14.779Z,8.80
2017-11-04T07:16:43.731Z,8.80
2017-11-04T07:19:11.925Z,8.80
2017-11-04T07:21:41.691Z,8.80
2017-11-04T07:24:09.792Z,8.90
2017-11-04T07:26:37.962Z,9.00
2017-11-04T07:29:06.128Z,9.10
2017-11-04T07:31:34.363Z,9.20
2017-11-04T07:34:02.599Z,9.30
2017-11-04T07:36:30.786Z,9.40
2017-11-04T07:38:58.996Z,9.60
2017-11-04T07:41:27.953Z,9.70
2017-11-04T07:43:56.170Z,9.80
2017-11-04T07:46:24.440Z,9.90
2017-11-04T07:48:53.311Z,10.10
2017-11-04T07:51:21.502Z,10.20
2017-11-04T07:53:50.459Z,10.30
2017-11-04T07:56:20.507Z,10.30
2017-11-04T07:58:49.593Z,10.40
2017-11-04T08:01:20.428Z,10.50
2017-11-04T08:03:49.579Z,10.40
2017-11-04T08:06:17.797Z,10.50
2017-11-04T08:08:46.932Z,10.50
2017-11-04T08:11:16.602Z,10.60
2017-11-04T08:13:46.819Z,10.60
2017-11-04T08:16:15.788Z,10.70
2017-11-04T08:18:45.471Z,11.00
2017-11-04T08:21:13.722Z,11.00
2017-11-04T08:23:42.905Z,11.40
2017-11-04T08:26:11.125Z,11.30
2017-11-04T08:28:41.113Z,11.70
2017-11-04T08:31:09.366Z,11.60
2017-11-04T08:33:38.263Z,11.80
2017-11-04T08:36:06.988Z,11.80
2017-11-04T08:38:35.232Z,11.90
2017-11-04T08:41:06.499Z,12.00
2017-11-04T08:43:36.064Z,12.00
2017-11-04T08:46:08.436Z,12.00
2017-11-04T08:48:36.709Z,12.00
2017-11-04T08:51:07.073Z,12.50
2017-11-04T08:53:35.390Z,12.40
2017-11-04T08:56:03.695Z,13.00
2017-11-04T08:58:31.957Z,13.60
2017-11-04T09:01:01.977Z,14.90
2017-11-04T09:03:33.102Z,14.80
2017-11-04T09:06:01.947Z,15.30
2017-11-04T09:08:30.970Z,15.50
2017-11-04T09:11:00.100Z,15.70
2017-11-04T09:13:29.068Z,16.10
2017-11-04T09:15:57.335Z,16.10
2017-11-04T09:18:25.603Z,16.30
2017-11-04T09:20:53.848Z,16.70
2017-11-04T09:23:22.807Z,18.90
2017-11-04T09:25:51.773Z,20.20
2017-11-04T09:28:21.175Z,20.10
2017-11-04T09:30:52.941Z,21.40
2017-11-04T09:33:21.997Z,21.40
2017-11-04T09:35:50.413Z,21.40
2017-11-04T09:38:20.063Z,22.00
2017-11-04T09:40:49.198Z,22.70
2017-11-04T09:43:22.736Z,23.50
2017-11-04T09:45:51.554Z,23.80
2017-11-04T09:48:20.386Z,24.00
2017-11-04T09:50:50.333Z,23.80
2017-11-04T09:53:19.023Z,23.70
2017-11-04T09:55:48.106Z,23.90
2017-11-04T09:58:17.726Z,24.10
2017-11-04T10:00:46.992Z,24.00
2017-11-04T10:03:18.045Z,24.10
2017-11-04T10:05:46.351Z,24.10
2017-11-04T10:08:19.682Z,24.10
2017-11-04T10:10:48.199Z,24.60
2017-11-04T10:13:16.466Z,24.80
2017-11-04T10:15:44.727Z,24.50
2017-11-04T10:18:13.472Z,23.50
2017-11-04T10:20:42.520Z,22.70
2017-11-04T10:23:11.526Z,21.90
2017-11-04T10:25:41.216Z,21.90
2017-11-04T10:28:11.908Z,20.40
2017-11-04T10:30:40.097Z,20.30
2017-11-04T10:33:09.364Z,18.90
2017-11-04T10:35:37.662Z,18.20
2017-11-04T10:38:06.789Z,17.50
2017-11-04T10:40:35.032Z,17.30
2017-11-04T10:43:04.828Z,16.90
2017-11-04T10:45:33.769Z,16.80
2017-11-04T10:48:02.080Z,16.70
2017-11-04T10:50:30.586Z,16.90
2017-11-04T10:52:59.990Z,17.10
2017-11-04T10:55:29.023Z,17.10
2017-11-04T10:57:57.290Z,17.70
2017-11-04T11:00:27.084Z,18.70
2017-11-04T11:02:55.345Z,18.60
2017-11-04T11:05:23.613Z,18.80
2017-11-04T11:07:52.130Z,18.70
2017-11-04T11:10:21.415Z,18.40
2017-11-04T11:12:49.674Z,18.00
2017-11-04T11:15:17.984Z,18.30
2017-11-04T11:17:46.252Z,18.40
2017-11-04T11:20:15.970Z,18.10
2017-11-04T11:22:44.673Z,18.00
2017-11-04T11:25:14.323Z,19.50
2017-11-04T11:27:42.590Z,19.50
2017-11-04T11:30:10.859Z,20.80
2017-11-04T11:32:39.144Z,21.20
2017-11-04T11:35:07.444Z,21.00
2017-11-04T11:37:35.791Z,20.20
2017-11-04T11:40:05.192Z,18.70
2017-11-04T11:42:34.148Z,18.30
2017-11-04T11:45:03.229Z,18.20
2017-11-04T11:47:33.603Z,18.10
2017-11-04T11:50:02.405Z,18.00
2017-11-04T11:52:30.639Z,18.10
2017-11-04T11:54:58.846Z,18.30
2017-11-04T11:57:27.032Z,18.60
2017-11-04T11:59:55.266Z,18.50
2017-11-04T12:02:23.453Z,18.60
2017-11-04T12:04:51.717Z,18.70
2017-11-04T12:07:21.343Z,20.20
2017-11-04T12:09:50.471Z,20.90
2017-11-04T12:12:19.758Z,20.70
2017-11-04T12:14:47.962Z,20.70
2017-11-04T12:17:16.949Z,19.40
2017-11-04T12:19:45.178Z,19.40
2017-11-04T12:22:13.426Z,19.00
2017-11-04T12:24:41.647Z,18.80
2017-11-04T12:27:09.814Z,18.50
2017-11-04T12:29:38.004Z,18.10
2017-11-04T12:32:06.168Z,18.10
2017-11-04T12:34:35.270Z,18.00
2017-11-04T12:37:04.237Z,18.00
2017-11-04T12:39:32.427Z,17.90
2017-11-04T12:42:03.513Z,17.70
2017-11-04T12:44:31.723Z,17.50
2017-11-04T12:46:59.933Z,17.60
2017-11-04T12:49:28.408Z,18.00
2017-11-04T12:51:56.616Z,18.50
2017-11-04T12:54:24.835Z,18.80
2017-11-04T12:56:53.773Z,18.90
2017-11-04T12:59:22.682Z,18.90
2017-11-04T13:01:50.991Z,18.90
2017-11-04T13:04:19.903Z,18.80
2017-11-04T13:06:48.552Z,18.80
2017-11-04T13:09:17.586Z,19.10
2017-11-04T13:11:47.223Z,19.00
2017-11-04T13:14:16.188Z,19.10
2017-11-04T13:16:44.415Z,19.10
2017-11-04T13:19:12.626Z,19.20
2017-11-04T13:21:41.534Z,19.20
2017-11-04T13:24:09.814Z,19.30
2017-11-04T13:26:38.821Z,19.20
2017-11-04T13:29:07.080Z,19.10
2017-11-04T13:31:35.307Z,18.80
2017-11-04T13:34:03.533Z,18.60
2017-11-04T13:36:31.801Z,18.60
2017-11-04T13:39:00.072Z,18.50
2017-11-04T13:41:28.238Z,18.20
2017-11-04T13:43:56.436Z,18.00
2017-11-04T13:46:25.578Z,18.20
2017-11-04T13:48:53.775Z,18.30
2017-11-04T13:51:23.209Z,18.50
2017-11-04T13:53:51.478Z,18.60
2017-11-04T13:56:19.721Z,18.50
2017-11-04T13:58:48.890Z,18.60
2017-11-04T14:01:17.152Z,18.50
2017-11-04T14:03:47.417Z,18.50
2017-11-04T14:06:17.347Z,18.30
2017-11-04T14:08:46.388Z,18.40
2017-11-04T14:11:14.587Z,18.30
2017-11-04T14:13:43.576Z,18.30
2017-11-04T14:16:12.158Z,18.20
2017-11-04T14:18:40.393Z,18.20
2017-11-04T14:21:09.448Z,18.20
2017-11-04T14:23:37.743Z,18.20
2017-11-04T14:26:05.984Z,18.20
2017-11-04T14:28:34.984Z,17.80
2017-11-04T14:31:03.849Z,17.70
2017-11-04T14:33:32.057Z,17.90
2017-11-04T14:36:00.268Z,17.70
2017-11-04T14:38:28.436Z,17.60
2017-11-04T14:40:56.669Z,17.40
2017-11-04T14:43:25.664Z,17.50
2017-11-04T14:45:54.526Z,17.50
2017-11-04T14:48:22.765Z,17.40
2017-11-04T14:50:50.979Z,17.30
2017-11-04T14:53:19.947Z,17.30
2017-11-04T14:55:48.127Z,17.20
2017-11-04T14:58:17.134Z,16.80
2017-11-04T15:00:46.179Z,16.60
2017-11-04T15:03:15.300Z,16.60
2017-11-04T15:05:44.448Z,16.60
2017-11-04T15:08:12.629Z,16.40
2017-11-04T15:10:40.858Z,16.30
2017-11-04T15:13:09.839Z,16.00
2017-11-04T15:15:38.024Z,16.00
2017-11-04T15:18:07.092Z,15.80
2017-11-04T15:20:36.858Z,15.80
2017-11-04T15:23:05.063Z,15.80
2017-11-04T15:25:33.294Z,15.70
2017-11-04T15:28:03.380Z,15.60
2017-11-04T15:30:34.681Z,15.50
2017-11-04T15:33:04.168Z,15.50
2017-11-04T15:35:33.168Z,15.30
2017-11-04T15:38:01.300Z,15.30
2017-11-04T15:40:29.538Z,15.30
2017-11-04T15:42:58.233Z,15.30
2017-11-04T15:45:26.317Z,15.20
2017-11-04T15:47:54.393Z,15.10
2017-11-04T15:50:22.484Z,15.10
2017-11-04T15:52:50.581Z,15.00
2017-11-04T15:55:18.651Z,15.00
2017-11-04T15:57:46.813Z,15.00
2017-11-04T16:00:14.896Z,15.00
2017-11-04T16:02:42.983Z,15.00
2017-11-04T16:05:11.057Z,15.00
2017-11-04T16:07:39.128Z,15.00
2017-11-04T16:10:07.227Z,14.90
2017-11-04T16:12:35.333Z,14.80
2017-11-04T16:15:04.202Z,14.80
2017-11-04T16:17:32.307Z,14.80
2017-11-04T16:20:01.146Z,14.90
2017-11-04T16:22:29.232Z,14.80
2017-11-04T16:24:57.297Z,15.00
2017-11-04T16:27:25.394Z,15.00
2017-11-04T16:29:54.207Z,14.80
2017-11-04T16:32:22.328Z,14.80
2017-11-04T16:34:50.389Z,14.80
2017-11-04T16:37:18.467Z,14.80
2017-11-04T16:39:46.581Z,14.80
2017-11-04T16:42:15.412Z,14.80
2017-11-04T16:44:43.486Z,14.70
2017-11-04T16:47:11.582Z,14.70
2017-11-04T16:49:40.410Z,14.80
2017-11-04T16:52:08.526Z,14.70
2017-11-04T16:54:37.374Z,14.90
2017-11-04T16:57:05.461Z,14.80
2017-11-04T16:59:33.527Z,14.90
2017-11-04T17:02:02.559Z,14.90
2017-11-04T17:04:31.421Z,15.10
2017-11-04T17:06:59.534Z,15.00
2017-11-04T17:09:28.891Z,15.10
2017-11-04T17:11:56.955Z,15.10
2017-11-04T17:14:25.071Z,15.00
2017-11-04T17:16:53.983Z,15.00
2017-11-04T17:19:22.795Z,14.90
2017-11-04T17:21:50.934Z,14.90
2017-11-04T17:24:19.019Z,14.90
2017-11-04T17:26:47.100Z,15.00
2017-11-04T17:29:15.199Z,15.00
2017-11-04T17:31:43.312Z,15.00
2017-11-04T17:34:12.150Z,15.00
2017-11-04T17:36:40.248Z,15.00
2017-11-04T17:39:08.415Z,15.10
2017-11-04T17:41:37.255Z,15.10
2017-11-04T17:44:05.344Z,15.00
2017-11-04T17:46:33.468Z,15.00
2017-11-04T17:49:02.367Z,15.00
2017-11-04T17:51:31.214Z,15.00
2017-11-04T17:53:59.374Z,15.00
2017-11-04T17:56:28.814Z,15.10
2017-11-04T17:58:56.877Z,15.00
2017-11-04T18:01:25.775Z,15.00
2017-11-04T18:03:54.651Z,15.00
2017-11-04T18:06:22.741Z,15.00
2017-11-04T18:08:50.812Z,15.00
2017-11-04T18:11:18.932Z,15.10
2017-11-04T18:13:47.655Z,15.10
2017-11-04T18:16:16.815Z,15.10
2017-11-04T18:18:44.872Z,15.10
2017-11-04T18:21:14.249Z,15.10
2017-11-04T18:23:43.070Z,15.10
2017-11-04T18:26:11.145Z,15.00
2017-11-04T18:28:39.234Z,15.10
2017-11-04T18:31:07.331Z,15.10
2017-11-04T18:33:36.160Z,14.80
2017-11-04T18:36:04.250Z,14.70
2017-11-04T18:38:32.340Z,14.70
2017-11-04T18:41:00.412Z,14.60
2017-11-04T18:43:28.483Z,14.50
2017-11-04T18:45:56.549Z,14.50
2017-11-04T18:48:24.637Z,14.40
2017-11-04T18:50:52.734Z,14.40
2017-11-04T18:53:20.858Z,14.40
2017-11-04T18:55:48.953Z,14.40
2017-11-04T18:58:17.156Z,14.30
2017-11-04T19:00:45.286Z,14.30
2017-11-04T19:03:13.378Z,14.30
2017-11-04T19:05:41.466Z,14.20
2017-11-04T19:08:09.561Z,14.30
2017-11-04T19:10:37.639Z,14.30
2017-11-04T19:13:05.709Z,14.30
2017-11-04T19:15:33.784Z,14.30
2017-11-04T19:18:02.681Z,14.40
2017-11-04T19:20:31.563Z,14.50
2017-11-04T19:22:59.632Z,14.40
2017-11-04T19:25:27.716Z,14.50
2017-11-04T19:27:56.573Z,14.70
2017-11-04T19:30:24.671Z,14.60
2017-11-04T19:32:53.595Z,14.80
2017-11-04T19:35:21.695Z,14.70
2017-11-04T19:37:49.822Z,14.80
2017-11-04T19:40:25.379Z,14.80
2017-11-04T19:42:53.704Z,14.70
2017-11-04T19:45:24.881Z,14.90
2017-11-04T19:48:02.628Z,14.90
2017-11-04T19:50:30.821Z,15.00
2017-11-04T19:52:59.983Z,15.10
2017-11-04T19:55:28.189Z,15.20
2017-11-04T19:57:59.923Z,15.30
2017-11-04T20:00:30.050Z,15.20
2017-11-04T20:03:04.849Z,15.20
2017-11-04T20:05:37.277Z,15.30
2017-11-04T20:08:05.512Z,15.30
2017-11-04T20:10:36.722Z,15.20
2017-11-04T20:13:10.943Z,15.30
2017-11-04T20:15:41.136Z,15.30
2017-11-04T20:18:12.238Z,15.20
2017-11-04T20:20:44.303Z,15.40
2017-11-04T20:23:13.437Z,15.30
2017-11-04T20:25:41.623Z,15.20
2017-11-04T20:28:13.369Z,15.20
2017-11-04T20:30:44.918Z,15.10
2017-11-04T20:33:14.757Z,15.20
2017-11-04T20:35:48.094Z,15.10
2017-11-04T20:38:16.212Z,15.10
2017-11-04T20:40:44.289Z,15.10
2017-11-04T20:43:12.363Z,15.20
2017-11-04T20:45:40.458Z,15.30
2017-11-04T20:48:09.341Z,15.30
2017-11-04T20:50:37.441Z,15.20
2017-11-04T20:53:06.292Z,15.30
2017-11-04T20:55:34.348Z,15.20
2017-11-04T20:58:03.207Z,15.30
2017-11-04T21:00:31.299Z,15.30
2017-11-04T21:03:00.158Z,15.30
2017-11-04T21:05:28.270Z,15.30
2017-11-04T21:07:57.127Z,15.30
2017-11-04T21:10:25.208Z,15.30
2017-11-04T21:12:53.280Z,15.30
2017-11-04T21:15:21.654Z,15.40
2017-11-04T21:17:49.733Z,15.30
2017-11-04T21:20:17.821Z,15.30
2017-11-04T21:22:46.692Z,15.30
2017-11-04T21:25:15.535Z,15.30
2017-11-04T21:27:43.921Z,15.30
2017-11-04T21:30:12.021Z,15.30
2017-11-04T21:32:40.101Z,15.30
2017-11-04T21:35:08.183Z,15.20
2017-11-04T21:37:37.035Z,15.30
2017-11-04T21:40:05.113Z,15.20
2017-11-04T21:42:33.186Z,15.20
2017-11-04T21:45:01.269Z,15.10
2017-11-04T21:47:29.340Z,15.10
2017-11-04T21:49:57.433Z,15.20
2017-11-04T21:52:25.523Z,15.10
2017-11-04T21:54:54.364Z,15.10
2017-11-04T21:57:22.436Z,15.10
2017-11-04T21:59:51.631Z,15.10
2017-11-04T22:02:19.699Z,15.20
2017-11-04T22:04:47.764Z,15.10
2017-11-04T22:07:15.865Z,15.10
2017-11-04T22:09:43.929Z,15.10
2017-11-04T22:12:12.002Z,15.10
2017-11-04T22:14:40.081Z,15.10
2017-11-04T22:17:08.192Z,15.10
2017-11-04T22:19:36.243Z,15.10
2017-11-04T22:22:05.263Z,15.10
2017-11-04T22:24:34.168Z,15.20
2017-11-04T22:27:02.223Z,15.10
2017-11-04T22:29:31.081Z,15.10
2017-11-04T22:31:59.160Z,15.10
2017-11-04T22:34:27.232Z,15.10
2017-11-04T22:36:55.301Z,15.10
2017-11-04T22:39:23.401Z,15.20
2017-11-04T22:41:51.485Z,15.20
2017-11-04T22:44:20.332Z,15.30
2017-11-04T22:46:48.418Z,15.30
2017-11-04T22:49:16.525Z,15.30
2017-11-04T22:51:45.349Z,15.40
2017-11-04T22:54:13.433Z,15.30
2017-11-04T22:56:41.534Z,15.40
2017-11-04T22:59:09.629Z,15.40
2017-11-04T23:01:37.702Z,15.40
2017-11-04T23:04:05.803Z,15.50
2017-11-04T23:06:33.899Z,15.50
2017-11-04T23:09:02.735Z,15.50
2017-11-04T23:11:30.833Z,15.50
2017-11-04T23:13:58.888Z,15.50
2017-11-04T23:16:26.962Z,15.40
2017-11-04T23:18:55.031Z,15.50
2017-11-04T23:21:23.129Z,15.50
2017-11-04T23:23:51.207Z,15.40
2017-11-04T23:26:20.051Z,15.50
2017-11-04T23:28:48.145Z,15.40
2017-11-04T23:31:16.213Z,15.50
2017-11-04T23:33:44.316Z,15.50
2017-11-04T23:36:13.140Z,15.50
2017-11-04T23:38:41.231Z,15.40
2017-11-04T23:41:09.295Z,15.50
2017-11-04T23:43:37.359Z,15.40
2017-11-04T23:46:05.443Z,15.40
2017-11-04T23:48:33.541Z,15.30
2017-11-04T23:51:01.607Z,15.30
2017-11-04T23:53:29.675Z,15.30
2017-11-04T23:55:58.556Z,15.20
2017-11-04T23:58:26.621Z,15.20
